Аэропорт: Гродно. Гродно

ICAO: UMMG

METAR:
2022-01-28 09:00:00
UMMG 280900Z 29008G11MPS 6000 -SHRA OVC008CB 02/01 Q0997 NOSIG
METAR:
2022-01-28 08:16:00
TAF UMMG 280816Z 2809/2818 29007G12MPS 6000 OVC009 TEMPO 2809/2815 32011G17MPS 2500 -SHRASN BKN005 BKN012CB